sensor_id;sensor_type;location;lat;lon;timestamp;P1;durP1;ratioP1;P2;durP2;ratioP2
10605;SDS011;5350;42.698;23.148;2023-02-11T00:00:31;14.50;;;8.17;;
10605;SDS011;5350;42.698;23.148;2023-02-11T00:02:58;15.37;;;7.93;;
10605;SDS011;5350;42.698;23.148;2023-02-11T00:05:24;14.60;;;7.77;;
10605;SDS011;5350;42.698;23.148;2023-02-11T00:07:51;18.23;;;8.60;;
10605;SDS011;5350;42.698;23.148;2023-02-11T00:10:18;16.97;;;9.33;;
10605;SDS011;5350;42.698;23.148;2023-02-11T00:12:44;15.53;;;8.53;;
10605;SDS011;5350;42.698;23.148;2023-02-11T00:15:11;16.67;;;9.20;;
10605;SDS011;5350;42.698;23.148;2023-02-11T00:17:39;15.73;;;8.87;;
10605;SDS011;5350;42.698;23.148;2023-02-11T00:20:06;16.80;;;8.93;;
10605;SDS011;5350;42.698;23.148;2023-02-11T00:22:33;14.20;;;8.37;;
10605;SDS011;5350;42.698;23.148;2023-02-11T00:25:01;16.13;;;8.50;;
10605;SDS011;5350;42.698;23.148;2023-02-11T00:27:28;16.80;;;9.50;;
10605;SDS011;5350;42.698;23.148;2023-02-11T00:29:55;18.73;;;10.17;;
10605;SDS011;5350;42.698;23.148;2023-02-11T00:32:22;15.63;;;8.93;;
10605;SDS011;5350;42.698;23.148;2023-02-11T00:34:51;15.40;;;8.97;;
10605;SDS011;5350;42.698;23.148;2023-02-11T00:37:19;16.20;;;8.30;;
10605;SDS011;5350;42.698;23.148;2023-02-11T00:39:46;13.53;;;7.13;;
10605;SDS011;5350;42.698;23.148;2023-02-11T00:42:14;19.77;;;8.90;;
10605;SDS011;5350;42.698;23.148;2023-02-11T00:44:41;22.07;;;10.27;;
10605;SDS011;5350;42.698;23.148;2023-02-11T00:47:08;19.53;;;9.80;;
10605;SDS011;5350;42.698;23.148;2023-02-11T00:49:34;15.53;;;8.77;;
10605;SDS011;5350;42.698;23.148;2023-02-11T00:52:05;20.13;;;9.63;;
10605;SDS011;5350;42.698;23.148;2023-02-11T00:54:31;21.17;;;11.10;;
10605;SDS011;5350;42.698;23.148;2023-02-11T00:56:58;17.13;;;9.33;;
10605;SDS011;5350;42.698;23.148;2023-02-11T00:59:25;15.53;;;8.03;;
10605;SDS011;5350;42.698;23.148;2023-02-11T01:01:53;17.43;;;8.40;;
10605;SDS011;5350;42.698;23.148;2023-02-11T01:04:20;17.47;;;8.70;;
10605;SDS011;5350;42.698;23.148;2023-02-11T01:06:47;17.00;;;8.63;;
10605;SDS011;5350;42.698;23.148;2023-02-11T01:09:15;18.07;;;9.27;;
10605;SDS011;5350;42.698;23.148;2023-02-11T01:11:42;20.30;;;11.00;;
10605;SDS011;5350;42.698;23.148;2023-02-11T01:14:08;19.00;;;10.20;;
10605;SDS011;5350;42.698;23.148;2023-02-11T01:16:35;27.67;;;14.37;;
10605;SDS011;5350;42.698;23.148;2023-02-11T01:19:02;38.07;;;19.10;;
10605;SDS011;5350;42.698;23.148;2023-02-11T01:21:29;23.80;;;12.07;;
10605;SDS011;5350;42.698;23.148;2023-02-11T01:23:55;33.30;;;16.13;;
10605;SDS011;5350;42.698;23.148;2023-02-11T01:26:23;52.73;;;23.27;;
10605;SDS011;5350;42.698;23.148;2023-02-11T01:28:50;191.83;;;64.43;;
10605;SDS011;5350;42.698;23.148;2023-02-11T01:31:17;129.03;;;45.57;;
10605;SDS011;5350;42.698;23.148;2023-02-11T01:33:44;84.23;;;35.70;;
10605;SDS011;5350;42.698;23.148;2023-02-11T01:36:10;72.70;;;29.47;;
10605;SDS011;5350;42.698;23.148;2023-02-11T01:38:37;76.63;;;28.10;;
10605;SDS011;5350;42.698;23.148;2023-02-11T01:41:05;38.13;;;18.00;;
10605;SDS011;5350;42.698;23.148;2023-02-11T01:43:35;21.33;;;10.87;;
10605;SDS011;5350;42.698;23.148;2023-02-11T01:46:17;18.43;;;9.03;;
10605;SDS011;5350;42.698;23.148;2023-02-11T01:48:50;19.33;;;9.77;;
10605;SDS011;5350;42.698;23.148;2023-02-11T01:51:21;18.57;;;9.17;;
10605;SDS011;5350;42.698;23.148;2023-02-11T01:53:51;17.57;;;8.97;;
10605;SDS011;5350;42.698;23.148;2023-02-11T01:56:38;17.97;;;8.40;;
10605;SDS011;5350;42.698;23.148;2023-02-11T01:59:44;14.50;;;8.13;;
10605;SDS011;5350;42.698;23.148;2023-02-11T02:02:14;13.90;;;8.10;;
10605;SDS011;5350;42.698;23.148;2023-02-11T02:04:46;17.10;;;8.80;;
10605;SDS011;5350;42.698;23.148;2023-02-11T02:07:20;17.40;;;8.63;;
10605;SDS011;5350;42.698;23.148;2023-02-11T02:09:54;14.00;;;7.77;;
10605;SDS011;5350;42.698;23.148;2023-02-11T02:12:25;13.73;;;8.00;;
10605;SDS011;5350;42.698;23.148;2023-02-11T02:18:05;14.70;;;7.87;;
10605;SDS011;5350;42.698;23.148;2023-02-11T02:20:50;16.03;;;7.70;;
10605;SDS011;5350;42.698;23.148;2023-02-11T02:23:46;13.90;;;7.73;;
10605;SDS011;5350;42.698;23.148;2023-02-11T02:29:43;12.97;;;7.23;;
10605;SDS011;5350;42.698;23.148;2023-02-11T02:32:35;15.40;;;8.13;;
10605;SDS011;5350;42.698;23.148;2023-02-11T02:35:10;12.47;;;6.87;;
10605;SDS011;5350;42.698;23.148;2023-02-11T02:37:49;12.97;;;7.07;;
10605;SDS011;5350;42.698;23.148;2023-02-11T02:40:23;14.43;;;7.53;;
10605;SDS011;5350;42.698;23.148;2023-02-11T02:42:52;11.53;;;7.23;;
10605;SDS011;5350;42.698;23.148;2023-02-11T02:45:20;14.27;;;7.37;;
10605;SDS011;5350;42.698;23.148;2023-02-11T02:47:48;14.53;;;8.27;;
10605;SDS011;5350;42.698;23.148;2023-02-11T02:50:15;13.83;;;7.50;;
10605;SDS011;5350;42.698;23.148;2023-02-11T02:52:51;15.97;;;8.77;;
10605;SDS011;5350;42.698;23.148;2023-02-11T03:01:16;15.70;;;9.70;;
10605;SDS011;5350;42.698;23.148;2023-02-11T03:03:53;14.90;;;8.83;;
10605;SDS011;5350;42.698;23.148;2023-02-11T03:06:30;16.53;;;9.27;;
10605;SDS011;5350;42.698;23.148;2023-02-11T03:09:02;13.93;;;8.23;;
10605;SDS011;5350;42.698;23.148;2023-02-11T03:11:32;13.83;;;7.03;;
10605;SDS011;5350;42.698;23.148;2023-02-11T03:14:02;10.30;;;5.27;;
10605;SDS011;5350;42.698;23.148;2023-02-11T03:16:31;14.03;;;6.80;;
10605;SDS011;5350;42.698;23.148;2023-02-11T03:19:05;15.20;;;7.80;;
10605;SDS011;5350;42.698;23.148;2023-02-11T03:21:38;16.27;;;7.50;;
10605;SDS011;5350;42.698;23.148;2023-02-11T03:24:07;16.93;;;8.07;;
10605;SDS011;5350;42.698;23.148;2023-02-11T03:26:39;9.60;;;6.07;;
10605;SDS011;5350;42.698;23.148;2023-02-11T03:29:13;12.80;;;6.70;;
10605;SDS011;5350;42.698;23.148;2023-02-11T03:31:46;12.67;;;7.40;;
10605;SDS011;5350;42.698;23.148;2023-02-11T03:34:24;17.13;;;7.80;;
10605;SDS011;5350;42.698;23.148;2023-02-11T03:36:58;16.23;;;8.37;;
10605;SDS011;5350;42.698;23.148;2023-02-11T03:39:29;14.57;;;7.43;;
10605;SDS011;5350;42.698;23.148;2023-02-11T03:42:01;11.27;;;6.70;;
10605;SDS011;5350;42.698;23.148;2023-02-11T03:44:32;15.23;;;6.27;;
10605;SDS011;5350;42.698;23.148;2023-02-11T03:47:03;14.73;;;7.13;;
10605;SDS011;5350;42.698;23.148;2023-02-11T03:49:34;12.67;;;7.37;;
10605;SDS011;5350;42.698;23.148;2023-02-11T03:52:05;13.73;;;7.07;;
10605;SDS011;5350;42.698;23.148;2023-02-11T03:54:35;17.57;;;8.07;;
10605;SDS011;5350;42.698;23.148;2023-02-11T03:57:06;25.07;;;11.07;;
10605;SDS011;5350;42.698;23.148;2023-02-11T03:59:47;20.43;;;10.13;;
10605;SDS011;5350;42.698;23.148;2023-02-11T04:02:15;21.30;;;10.77;;
10605;SDS011;5350;42.698;23.148;2023-02-11T04:04:43;22.47;;;11.20;;
10605;SDS011;5350;42.698;23.148;2023-02-11T04:07:11;26.40;;;12.30;;
10605;SDS011;5350;42.698;23.148;2023-02-11T04:09:38;29.23;;;13.17;;
10605;SDS011;5350;42.698;23.148;2023-02-11T04:12:05;29.27;;;12.40;;
10605;SDS011;5350;42.698;23.148;2023-02-11T04:14:32;23.73;;;10.27;;
10605;SDS011;5350;42.698;23.148;2023-02-11T04:16:59;21.60;;;10.10;;
10605;SDS011;5350;42.698;23.148;2023-02-11T04:19:26;20.90;;;10.07;;
10605;SDS011;5350;42.698;23.148;2023-02-11T04:21:54;16.13;;;8.60;;
10605;SDS011;5350;42.698;23.148;2023-02-11T04:24:21;16.50;;;7.63;;
10605;SDS011;5350;42.698;23.148;2023-02-11T04:26:48;13.13;;;7.23;;
10605;SDS011;5350;42.698;23.148;2023-02-11T04:29:15;15.27;;;7.50;;
10605;SDS011;5350;42.698;23.148;2023-02-11T04:31:41;14.23;;;7.57;;
10605;SDS011;5350;42.698;23.148;2023-02-11T04:34:08;16.10;;;8.30;;
10605;SDS011;5350;42.698;23.148;2023-02-11T04:36:35;14.83;;;7.70;;
10605;SDS011;5350;42.698;23.148;2023-02-11T04:39:03;13.40;;;7.43;;
10605;SDS011;5350;42.698;23.148;2023-02-11T04:41:30;18.93;;;8.50;;
10605;SDS011;5350;42.698;23.148;2023-02-11T04:43:57;14.20;;;8.17;;
10605;SDS011;5350;42.698;23.148;2023-02-11T04:46:23;12.83;;;7.53;;
10605;SDS011;5350;42.698;23.148;2023-02-11T04:48:50;12.10;;;6.53;;
10605;SDS011;5350;42.698;23.148;2023-02-11T04:51:17;16.60;;;7.67;;
10605;SDS011;5350;42.698;23.148;2023-02-11T04:53:44;17.63;;;9.40;;
10605;SDS011;5350;42.698;23.148;2023-02-11T04:56:12;13.80;;;7.83;;
10605;SDS011;5350;42.698;23.148;2023-02-11T04:58:39;15.53;;;9.23;;
10605;SDS011;5350;42.698;23.148;2023-02-11T05:01:06;20.80;;;9.00;;
10605;SDS011;5350;42.698;23.148;2023-02-11T05:03:33;18.47;;;9.60;;
10605;SDS011;5350;42.698;23.148;2023-02-11T05:06:00;17.03;;;8.40;;
10605;SDS011;5350;42.698;23.148;2023-02-11T05:08:26;14.97;;;7.53;;
10605;SDS011;5350;42.698;23.148;2023-02-11T05:10:53;19.23;;;9.30;;
10605;SDS011;5350;42.698;23.148;2023-02-11T05:13:21;12.83;;;7.70;;
10605;SDS011;5350;42.698;23.148;2023-02-11T05:15:48;14.83;;;7.50;;
10605;SDS011;5350;42.698;23.148;2023-02-11T05:18:15;13.20;;;7.50;;
10605;SDS011;5350;42.698;23.148;2023-02-11T05:20:42;17.23;;;9.10;;
10605;SDS011;5350;42.698;23.148;2023-02-11T05:23:09;14.97;;;8.33;;
10605;SDS011;5350;42.698;23.148;2023-02-11T05:25:36;15.97;;;9.30;;
10605;SDS011;5350;42.698;23.148;2023-02-11T05:28:03;19.17;;;9.20;;
10605;SDS011;5350;42.698;23.148;2023-02-11T05:30:32;17.43;;;8.67;;
10605;SDS011;5350;42.698;23.148;2023-02-11T05:32:59;14.07;;;7.37;;
10605;SDS011;5350;42.698;23.148;2023-02-11T05:35:26;14.63;;;7.63;;
10605;SDS011;5350;42.698;23.148;2023-02-11T05:37:53;17.50;;;9.10;;
10605;SDS011;5350;42.698;23.148;2023-02-11T05:40:19;18.10;;;9.17;;
10605;SDS011;5350;42.698;23.148;2023-02-11T05:42:46;17.60;;;8.57;;
10605;SDS011;5350;42.698;23.148;2023-02-11T05:45:13;19.03;;;9.37;;
10605;SDS011;5350;42.698;23.148;2023-02-11T05:47:41;20.20;;;10.60;;
10605;SDS011;5350;42.698;23.148;2023-02-11T05:50:08;21.90;;;11.40;;
10605;SDS011;5350;42.698;23.148;2023-02-11T05:52:34;20.30;;;9.90;;
10605;SDS011;5350;42.698;23.148;2023-02-11T05:55:01;16.53;;;9.30;;
10605;SDS011;5350;42.698;23.148;2023-02-11T05:57:28;16.67;;;10.10;;
10605;SDS011;5350;42.698;23.148;2023-02-11T05:59:55;17.70;;;9.63;;
10605;SDS011;5350;42.698;23.148;2023-02-11T06:02:21;19.63;;;10.20;;
10605;SDS011;5350;42.698;23.148;2023-02-11T06:04:49;17.80;;;9.07;;
10605;SDS011;5350;42.698;23.148;2023-02-11T06:07:16;15.57;;;9.53;;
10605;SDS011;5350;42.698;23.148;2023-02-11T06:09:43;16.53;;;9.03;;
10605;SDS011;5350;42.698;23.148;2023-02-11T06:12:10;24.57;;;13.03;;
10605;SDS011;5350;42.698;23.148;2023-02-11T06:14:37;33.17;;;16.13;;
10605;SDS011;5350;42.698;23.148;2023-02-11T06:17:04;29.37;;;15.37;;
10605;SDS011;5350;42.698;23.148;2023-02-11T06:19:31;28.87;;;14.30;;
10605;SDS011;5350;42.698;23.148;2023-02-11T06:21:59;23.27;;;12.67;;
10605;SDS011;5350;42.698;23.148;2023-02-11T06:24:26;21.23;;;11.37;;
10605;SDS011;5350;42.698;23.148;2023-02-11T06:26:52;21.40;;;10.57;;
10605;SDS011;5350;42.698;23.148;2023-02-11T06:29:19;21.43;;;11.57;;
10605;SDS011;5350;42.698;23.148;2023-02-11T06:31:46;21.27;;;11.70;;
10605;SDS011;5350;42.698;23.148;2023-02-11T06:34:13;19.93;;;9.87;;
10605;SDS011;5350;42.698;23.148;2023-02-11T06:36:39;20.47;;;11.43;;
10605;SDS011;5350;42.698;23.148;2023-02-11T06:39:09;22.53;;;11.63;;
10605;SDS011;5350;42.698;23.148;2023-02-11T06:41:38;17.67;;;10.53;;
10605;SDS011;5350;42.698;23.148;2023-02-11T06:44:05;18.80;;;10.17;;
10605;SDS011;5350;42.698;23.148;2023-02-11T06:46:32;22.03;;;11.33;;
10605;SDS011;5350;42.698;23.148;2023-02-11T06:48:58;22.43;;;11.47;;
10605;SDS011;5350;42.698;23.148;2023-02-11T06:51:25;19.30;;;10.77;;
10605;SDS011;5350;42.698;23.148;2023-02-11T06:53:52;20.53;;;10.80;;
10605;SDS011;5350;42.698;23.148;2023-02-11T06:56:21;18.70;;;10.83;;
10605;SDS011;5350;42.698;23.148;2023-02-11T06:58:51;19.77;;;10.30;;
10605;SDS011;5350;42.698;23.148;2023-02-11T07:01:19;21.63;;;12.00;;
10605;SDS011;5350;42.698;23.148;2023-02-11T07:03:46;19.03;;;11.23;;
10605;SDS011;5350;42.698;23.148;2023-02-11T07:06:14;18.30;;;9.83;;
10605;SDS011;5350;42.698;23.148;2023-02-11T07:08:43;16.57;;;9.53;;
10605;SDS011;5350;42.698;23.148;2023-02-11T07:11:10;20.13;;;10.30;;
10605;SDS011;5350;42.698;23.148;2023-02-11T07:13:40;18.40;;;10.90;;
10605;SDS011;5350;42.698;23.148;2023-02-11T07:16:08;18.07;;;10.03;;
10605;SDS011;5350;42.698;23.148;2023-02-11T07:18:37;19.03;;;9.73;;
10605;SDS011;5350;42.698;23.148;2023-02-11T07:21:04;17.87;;;10.77;;
10605;SDS011;5350;42.698;23.148;2023-02-11T07:23:31;17.10;;;9.63;;
10605;SDS011;5350;42.698;23.148;2023-02-11T07:26:01;18.20;;;9.87;;
10605;SDS011;5350;42.698;23.148;2023-02-11T07:28:28;19.03;;;9.83;;
10605;SDS011;5350;42.698;23.148;2023-02-11T07:30:56;17.37;;;9.57;;
10605;SDS011;5350;42.698;23.148;2023-02-11T07:33:23;16.23;;;9.43;;
10605;SDS011;5350;42.698;23.148;2023-02-11T07:35:49;20.07;;;10.63;;
10605;SDS011;5350;42.698;23.148;2023-02-11T07:38:16;18.57;;;9.83;;
10605;SDS011;5350;42.698;23.148;2023-02-11T07:40:43;15.50;;;8.80;;
10605;SDS011;5350;42.698;23.148;2023-02-11T07:43:09;23.07;;;10.90;;
10605;SDS011;5350;42.698;23.148;2023-02-11T07:45:37;19.33;;;10.83;;
10605;SDS011;5350;42.698;23.148;2023-02-11T07:48:05;17.90;;;10.40;;
10605;SDS011;5350;42.698;23.148;2023-02-11T07:50:32;18.10;;;9.77;;
10605;SDS011;5350;42.698;23.148;2023-02-11T07:52:58;17.30;;;9.60;;
10605;SDS011;5350;42.698;23.148;2023-02-11T07:55:25;16.87;;;9.57;;
10605;SDS011;5350;42.698;23.148;2023-02-11T07:57:52;17.63;;;10.50;;
10605;SDS011;5350;42.698;23.148;2023-02-11T08:00:19;15.87;;;9.23;;
10605;SDS011;5350;42.698;23.148;2023-02-11T08:02:45;19.10;;;10.30;;
10605;SDS011;5350;42.698;23.148;2023-02-11T08:05:14;17.90;;;9.30;;
10605;SDS011;5350;42.698;23.148;2023-02-11T08:07:40;20.17;;;11.10;;
10605;SDS011;5350;42.698;23.148;2023-02-11T08:10:07;19.23;;;11.47;;
10605;SDS011;5350;42.698;23.148;2023-02-11T08:12:34;21.17;;;12.70;;
10605;SDS011;5350;42.698;23.148;2023-02-11T08:15:01;26.50;;;12.23;;
10605;SDS011;5350;42.698;23.148;2023-02-11T08:17:27;19.57;;;11.43;;
10605;SDS011;5350;42.698;23.148;2023-02-11T08:19:54;19.43;;;10.63;;
10605;SDS011;5350;42.698;23.148;2023-02-11T08:22:22;18.27;;;10.40;;
10605;SDS011;5350;42.698;23.148;2023-02-11T08:24:49;20.60;;;11.47;;
10605;SDS011;5350;42.698;23.148;2023-02-11T08:27:16;18.13;;;10.60;;
10605;SDS011;5350;42.698;23.148;2023-02-11T08:29:42;18.10;;;10.53;;
10605;SDS011;5350;42.698;23.148;2023-02-11T08:32:09;18.77;;;10.30;;
10605;SDS011;5350;42.698;23.148;2023-02-11T08:34:36;17.60;;;10.67;;
10605;SDS011;5350;42.698;23.148;2023-02-11T08:37:02;21.50;;;11.00;;
10605;SDS011;5350;42.698;23.148;2023-02-11T08:39:30;19.87;;;10.03;;
10605;SDS011;5350;42.698;23.148;2023-02-11T08:41:57;14.90;;;9.43;;
10605;SDS011;5350;42.698;23.148;2023-02-11T08:44:24;16.23;;;10.07;;
10605;SDS011;5350;42.698;23.148;2023-02-11T08:46:51;17.03;;;9.33;;
10605;SDS011;5350;42.698;23.148;2023-02-11T08:49:19;16.10;;;8.33;;
10605;SDS011;5350;42.698;23.148;2023-02-11T08:51:46;18.10;;;9.73;;
10605;SDS011;5350;42.698;23.148;2023-02-11T08:54:13;15.07;;;8.43;;
10605;SDS011;5350;42.698;23.148;2023-02-11T08:56:42;14.20;;;8.50;;
10605;SDS011;5350;42.698;23.148;2023-02-11T08:59:10;13.30;;;7.37;;
10605;SDS011;5350;42.698;23.148;2023-02-11T09:01:38;14.23;;;6.97;;
10605;SDS011;5350;42.698;23.148;2023-02-11T09:04:05;15.03;;;8.90;;
10605;SDS011;5350;42.698;23.148;2023-02-11T09:06:32;14.30;;;7.50;;
10605;SDS011;5350;42.698;23.148;2023-02-11T09:08:58;14.10;;;8.13;;
10605;SDS011;5350;42.698;23.148;2023-02-11T09:11:26;11.13;;;6.53;;
10605;SDS011;5350;42.698;23.148;2023-02-11T09:13:56;16.13;;;8.80;;
10605;SDS011;5350;42.698;23.148;2023-02-11T09:16:24;13.07;;;6.57;;
10605;SDS011;5350;42.698;23.148;2023-02-11T09:18:52;5.90;;;3.40;;
10605;SDS011;5350;42.698;23.148;2023-02-11T09:21:21;6.50;;;3.13;;
10605;SDS011;5350;42.698;23.148;2023-02-11T09:23:48;14.03;;;8.13;;
10605;SDS011;5350;42.698;23.148;2023-02-11T09:26:16;13.57;;;7.67;;
10605;SDS011;5350;42.698;23.148;2023-02-11T09:28:44;15.10;;;7.83;;
10605;SDS011;5350;42.698;23.148;2023-02-11T09:31:13;14.20;;;8.60;;
10605;SDS011;5350;42.698;23.148;2023-02-11T09:33:41;15.10;;;7.57;;
10605;SDS011;5350;42.698;23.148;2023-02-11T09:36:13;14.90;;;7.40;;
10605;SDS011;5350;42.698;23.148;2023-02-11T09:38:41;12.67;;;7.60;;
10605;SDS011;5350;42.698;23.148;2023-02-11T09:41:13;14.33;;;8.40;;
10605;SDS011;5350;42.698;23.148;2023-02-11T09:44:05;12.80;;;7.40;;
10605;SDS011;5350;42.698;23.148;2023-02-11T09:46:35;13.53;;;8.40;;
10605;SDS011;5350;42.698;23.148;2023-02-11T09:49:05;15.00;;;8.33;;
10605;SDS011;5350;42.698;23.148;2023-02-11T09:51:41;12.37;;;6.80;;
10605;SDS011;5350;42.698;23.148;2023-02-11T09:54:14;13.53;;;7.90;;
10605;SDS011;5350;42.698;23.148;2023-02-11T09:56:44;16.03;;;8.80;;
10605;SDS011;5350;42.698;23.148;2023-02-11T09:59:12;14.27;;;7.77;;
10605;SDS011;5350;42.698;23.148;2023-02-11T10:01:43;15.27;;;8.87;;
10605;SDS011;5350;42.698;23.148;2023-02-11T10:04:13;14.13;;;8.53;;
10605;SDS011;5350;42.698;23.148;2023-02-11T10:06:52;15.80;;;8.17;;
10605;SDS011;5350;42.698;23.148;2023-02-11T10:12:24;12.23;;;7.87;;
10605;SDS011;5350;42.698;23.148;2023-02-11T10:15:12;12.47;;;8.17;;
10605;SDS011;5350;42.698;23.148;2023-02-11T10:17:48;14.00;;;8.00;;
10605;SDS011;5350;42.698;23.148;2023-02-11T10:20:28;11.43;;;6.43;;
10605;SDS011;5350;42.698;23.148;2023-02-11T10:23:00;10.37;;;5.83;;
10605;SDS011;5350;42.698;23.148;2023-02-11T10:25:34;9.30;;;5.50;;
10605;SDS011;5350;42.698;23.148;2023-02-11T10:28:09;11.70;;;7.17;;
10605;SDS011;5350;42.698;23.148;2023-02-11T10:30:40;12.30;;;8.07;;
10605;SDS011;5350;42.698;23.148;2023-02-11T10:33:12;13.57;;;7.60;;
10605;SDS011;5350;42.698;23.148;2023-02-11T10:35:44;14.93;;;7.70;;
10605;SDS011;5350;42.698;23.148;2023-02-11T10:38:11;12.60;;;7.33;;
10605;SDS011;5350;42.698;23.148;2023-02-11T10:40:38;12.83;;;7.57;;
10605;SDS011;5350;42.698;23.148;2023-02-11T10:43:06;14.43;;;8.17;;
10605;SDS011;5350;42.698;23.148;2023-02-11T10:45:37;13.57;;;7.73;;
10605;SDS011;5350;42.698;23.148;2023-02-11T10:51:05;13.80;;;7.03;;
10605;SDS011;5350;42.698;23.148;2023-02-11T10:53:34;14.37;;;7.70;;
10605;SDS011;5350;42.698;23.148;2023-02-11T10:56:00;10.87;;;7.50;;
10605;SDS011;5350;42.698;23.148;2023-02-11T10:58:29;10.37;;;7.13;;
10605;SDS011;5350;42.698;23.148;2023-02-11T11:00:58;12.33;;;7.80;;
10605;SDS011;5350;42.698;23.148;2023-02-11T11:03:27;11.10;;;7.10;;
10605;SDS011;5350;42.698;23.148;2023-02-11T11:05:59;11.23;;;7.47;;
10605;SDS011;5350;42.698;23.148;2023-02-11T11:08:39;12.90;;;8.17;;
10605;SDS011;5350;42.698;23.148;2023-02-11T11:11:08;18.37;;;9.80;;
10605;SDS011;5350;42.698;23.148;2023-02-11T11:13:36;12.90;;;8.20;;
10605;SDS011;5350;42.698;23.148;2023-02-11T11:16:06;14.90;;;8.33;;
10605;SDS011;5350;42.698;23.148;2023-02-11T11:18:36;12.73;;;8.03;;
10605;SDS011;5350;42.698;23.148;2023-02-11T11:21:03;13.17;;;8.10;;
10605;SDS011;5350;42.698;23.148;2023-02-11T11:23:33;12.30;;;7.87;;
10605;SDS011;5350;42.698;23.148;2023-02-11T11:26:03;9.50;;;6.90;;
10605;SDS011;5350;42.698;23.148;2023-02-11T11:28:35;12.40;;;8.27;;
10605;SDS011;5350;42.698;23.148;2023-02-11T11:31:05;12.73;;;7.80;;
10605;SDS011;5350;42.698;23.148;2023-02-11T11:33:41;11.87;;;7.93;;
10605;SDS011;5350;42.698;23.148;2023-02-11T11:36:09;12.10;;;7.93;;
10605;SDS011;5350;42.698;23.148;2023-02-11T11:38:42;14.80;;;7.57;;
10605;SDS011;5350;42.698;23.148;2023-02-11T11:41:12;12.37;;;7.90;;
10605;SDS011;5350;42.698;23.148;2023-02-11T11:43:42;14.27;;;7.10;;
10605;SDS011;5350;42.698;23.148;2023-02-11T11:46:21;9.47;;;6.63;;
10605;SDS011;5350;42.698;23.148;2023-02-11T11:48:51;11.40;;;7.07;;
10605;SDS011;5350;42.698;23.148;2023-02-11T11:51:24;13.37;;;6.97;;
10605;SDS011;5350;42.698;23.148;2023-02-11T11:53:53;10.30;;;7.20;;
10605;SDS011;5350;42.698;23.148;2023-02-11T11:56:26;11.80;;;7.17;;
10605;SDS011;5350;42.698;23.148;2023-02-11T11:58:55;11.43;;;7.83;;
10605;SDS011;5350;42.698;23.148;2023-02-11T12:01:25;10.93;;;7.47;;
10605;SDS011;5350;42.698;23.148;2023-02-11T12:04:12;12.83;;;7.97;;
10605;SDS011;5350;42.698;23.148;2023-02-11T12:06:55;10.53;;;6.73;;
10605;SDS011;5350;42.698;23.148;2023-02-11T12:09:33;11.33;;;7.70;;
10605;SDS011;5350;42.698;23.148;2023-02-11T12:12:14;10.77;;;7.07;;
10605;SDS011;5350;42.698;23.148;2023-02-11T12:14:52;10.73;;;7.13;;
10605;SDS011;5350;42.698;23.148;2023-02-11T12:17:36;11.47;;;7.40;;
10605;SDS011;5350;42.698;23.148;2023-02-11T12:20:26;9.90;;;6.93;;
10605;SDS011;5350;42.698;23.148;2023-02-11T12:23:02;10.53;;;7.20;;
10605;SDS011;5350;42.698;23.148;2023-02-11T12:25:49;11.97;;;7.93;;
10605;SDS011;5350;42.698;23.148;2023-02-11T12:28:27;10.93;;;6.40;;
10605;SDS011;5350;42.698;23.148;2023-02-11T12:31:05;11.83;;;6.70;;
10605;SDS011;5350;42.698;23.148;2023-02-11T12:33:57;9.93;;;7.47;;
10605;SDS011;5350;42.698;23.148;2023-02-11T12:36:43;12.27;;;8.40;;
10605;SDS011;5350;42.698;23.148;2023-02-11T12:39:23;10.30;;;7.20;;
10605;SDS011;5350;42.698;23.148;2023-02-11T12:42:04;9.50;;;7.13;;
10605;SDS011;5350;42.698;23.148;2023-02-11T12:45:04;10.03;;;7.13;;
10605;SDS011;5350;42.698;23.148;2023-02-11T12:47:43;12.33;;;7.33;;
10605;SDS011;5350;42.698;23.148;2023-02-11T12:50:17;10.20;;;7.50;;
10605;SDS011;5350;42.698;23.148;2023-02-11T12:52:54;11.97;;;8.30;;
10605;SDS011;5350;42.698;23.148;2023-02-11T12:55:36;11.80;;;8.07;;
10605;SDS011;5350;42.698;23.148;2023-02-11T12:58:06;12.53;;;8.23;;
10605;SDS011;5350;42.698;23.148;2023-02-11T13:00:42;12.53;;;8.40;;
10605;SDS011;5350;42.698;23.148;2023-02-11T13:03:14;12.23;;;8.47;;
10605;SDS011;5350;42.698;23.148;2023-02-11T13:05:45;14.00;;;9.20;;
10605;SDS011;5350;42.698;23.148;2023-02-11T13:08:18;11.80;;;8.80;;
10605;SDS011;5350;42.698;23.148;2023-02-11T13:10:51;11.73;;;8.03;;
10605;SDS011;5350;42.698;23.148;2023-02-11T13:13:21;11.67;;;8.23;;
10605;SDS011;5350;42.698;23.148;2023-02-11T13:15:52;13.67;;;9.83;;
10605;SDS011;5350;42.698;23.148;2023-02-11T13:18:24;10.10;;;7.30;;
10605;SDS011;5350;42.698;23.148;2023-02-11T13:20:58;11.73;;;7.53;;
10605;SDS011;5350;42.698;23.148;2023-02-11T13:23:45;9.33;;;6.67;;
10605;SDS011;5350;42.698;23.148;2023-02-11T13:26:18;11.97;;;7.73;;
10605;SDS011;5350;42.698;23.148;2023-02-11T13:28:50;10.77;;;7.33;;
10605;SDS011;5350;42.698;23.148;2023-02-11T13:31:22;11.70;;;7.43;;
10605;SDS011;5350;42.698;23.148;2023-02-11T13:33:51;11.50;;;7.73;;
10605;SDS011;5350;42.698;23.148;2023-02-11T13:36:19;10.73;;;8.10;;
10605;SDS011;5350;42.698;23.148;2023-02-11T13:39:01;10.87;;;8.00;;
10605;SDS011;5350;42.698;23.148;2023-02-11T13:41:34;12.30;;;7.80;;
10605;SDS011;5350;42.698;23.148;2023-02-11T13:44:16;10.20;;;7.40;;
10605;SDS011;5350;42.698;23.148;2023-02-11T13:46:48;11.37;;;7.90;;
10605;SDS011;5350;42.698;23.148;2023-02-11T13:49:19;12.50;;;7.90;;
10605;SDS011;5350;42.698;23.148;2023-02-11T13:51:47;11.23;;;8.40;;
10605;SDS011;5350;42.698;23.148;2023-02-11T13:54:21;11.07;;;8.10;;
10605;SDS011;5350;42.698;23.148;2023-02-11T13:59:52;10.23;;;7.40;;
10605;SDS011;5350;42.698;23.148;2023-02-11T14:02:21;12.03;;;8.30;;
10605;SDS011;5350;42.698;23.148;2023-02-11T14:05:24;11.57;;;8.10;;
10605;SDS011;5350;42.698;23.148;2023-02-11T14:08:13;12.03;;;8.00;;
10605;SDS011;5350;42.698;23.148;2023-02-11T14:11:04;12.67;;;8.30;;
10605;SDS011;5350;42.698;23.148;2023-02-11T14:14:10;12.27;;;9.30;;
10605;SDS011;5350;42.698;23.148;2023-02-11T14:19:46;61.27;;;29.87;;
10605;SDS011;5350;42.698;23.148;2023-02-11T14:22:15;36.23;;;19.73;;
10605;SDS011;5350;42.698;23.148;2023-02-11T14:24:45;21.23;;;12.67;;
10605;SDS011;5350;42.698;23.148;2023-02-11T14:27:19;11.73;;;8.80;;
10605;SDS011;5350;42.698;23.148;2023-02-11T14:33:06;13.27;;;9.17;;
10605;SDS011;5350;42.698;23.148;2023-02-11T14:35:43;16.33;;;12.13;;
10605;SDS011;5350;42.698;23.148;2023-02-11T14:38:25;11.00;;;8.30;;
10605;SDS011;5350;42.698;23.148;2023-02-11T14:41:05;11.53;;;9.33;;
10605;SDS011;5350;42.698;23.148;2023-02-11T14:43:38;10.50;;;8.70;;
10605;SDS011;5350;42.698;23.148;2023-02-11T14:46:09;12.43;;;9.57;;
10605;SDS011;5350;42.698;23.148;2023-02-11T14:48:36;12.13;;;9.17;;
10605;SDS011;5350;42.698;23.148;2023-02-11T14:51:08;13.33;;;9.83;;
10605;SDS011;5350;42.698;23.148;2023-02-11T14:53:39;11.87;;;8.37;;
10605;SDS011;5350;42.698;23.148;2023-02-11T14:56:17;12.10;;;8.43;;
10605;SDS011;5350;42.698;23.148;2023-02-11T14:58:50;11.50;;;7.93;;
10605;SDS011;5350;42.698;23.148;2023-02-11T15:01:25;11.47;;;8.27;;
10605;SDS011;5350;42.698;23.148;2023-02-11T15:03:54;9.77;;;7.70;;
10605;SDS011;5350;42.698;23.148;2023-02-11T15:06:23;10.87;;;7.80;;
10605;SDS011;5350;42.698;23.148;2023-02-11T15:08:52;10.00;;;8.03;;
10605;SDS011;5350;42.698;23.148;2023-02-11T15:11:25;12.20;;;8.40;;
10605;SDS011;5350;42.698;23.148;2023-02-11T15:13:54;11.77;;;8.50;;
10605;SDS011;5350;42.698;23.148;2023-02-11T15:16:23;12.07;;;7.97;;
10605;SDS011;5350;42.698;23.148;2023-02-11T15:18:53;13.87;;;9.00;;